sensor_id;sensor_type;location;lat;lon;timestamp;P1;durP1;ratioP1;P2;durP2;ratioP2
48861;SDS011;34681;49.188;-0.374;2022-09-27T00:02:13;8.83;;;2.40;;
48861;SDS011;34681;49.188;-0.374;2022-09-27T00:04:38;4.90;;;2.30;;
48861;SDS011;34681;49.188;-0.374;2022-09-27T00:07:04;4.50;;;2.33;;
48861;SDS011;34681;49.188;-0.374;2022-09-27T00:09:29;11.93;;;2.30;;
48861;SDS011;34681;49.188;-0.374;2022-09-27T00:11:55;3.70;;;2.40;;
48861;SDS011;34681;49.188;-0.374;2022-09-27T00:14:20;9.33;;;2.83;;
48861;SDS011;34681;49.188;-0.374;2022-09-27T00:16:46;4.37;;;2.17;;
48861;SDS011;34681;49.188;-0.374;2022-09-27T00:19:15;7.00;;;2.83;;
48861;SDS011;34681;49.188;-0.374;2022-09-27T00:21:43;5.83;;;2.60;;
48861;SDS011;34681;49.188;-0.374;2022-09-27T00:24:13;7.70;;;3.33;;
48861;SDS011;34681;49.188;-0.374;2022-09-27T00:26:41;4.23;;;2.23;;
48861;SDS011;34681;49.188;-0.374;2022-09-27T00:29:07;6.13;;;2.37;;
48861;SDS011;34681;49.188;-0.374;2022-09-27T00:31:34;6.43;;;2.30;;
48861;SDS011;34681;49.188;-0.374;2022-09-27T00:34:01;6.87;;;2.60;;
48861;SDS011;34681;49.188;-0.374;2022-09-27T00:36:28;6.40;;;2.50;;
48861;SDS011;34681;49.188;-0.374;2022-09-27T00:38:54;7.40;;;2.50;;
48861;SDS011;34681;49.188;-0.374;2022-09-27T00:41:21;5.70;;;2.20;;
48861;SDS011;34681;49.188;-0.374;2022-09-27T00:43:49;4.03;;;2.57;;
48861;SDS011;34681;49.188;-0.374;2022-09-27T00:49:00;3.63;;;1.80;;
48861;SDS011;34681;49.188;-0.374;2022-09-27T00:51:49;8.17;;;2.80;;
48861;SDS011;34681;49.188;-0.374;2022-09-27T00:54:19;7.17;;;2.60;;
48861;SDS011;34681;49.188;-0.374;2022-09-27T00:56:48;5.07;;;2.43;;
48861;SDS011;34681;49.188;-0.374;2022-09-27T01:01:54;3.13;;;2.03;;
48861;SDS011;34681;49.188;-0.374;2022-09-27T01:04:21;7.77;;;1.90;;
48861;SDS011;34681;49.188;-0.374;2022-09-27T01:06:49;8.07;;;1.77;;
48861;SDS011;34681;49.188;-0.374;2022-09-27T01:09:15;3.30;;;2.10;;
48861;SDS011;34681;49.188;-0.374;2022-09-27T01:33:49;8.37;;;2.90;;
48861;SDS011;34681;49.188;-0.374;2022-09-27T01:47:18;7.67;;;2.63;;
48861;SDS011;34681;49.188;-0.374;2022-09-27T01:49:53;3.37;;;1.90;;
48861;SDS011;34681;49.188;-0.374;2022-09-27T01:52:26;3.13;;;1.80;;
48861;SDS011;34681;49.188;-0.374;2022-09-27T01:54:57;2.07;;;1.83;;
48861;SDS011;34681;49.188;-0.374;2022-09-27T01:57:26;7.30;;;2.23;;
48861;SDS011;34681;49.188;-0.374;2022-09-27T02:00:00;9.90;;;2.50;;
48861;SDS011;34681;49.188;-0.374;2022-09-27T02:02:29;2.50;;;2.30;;
48861;SDS011;34681;49.188;-0.374;2022-09-27T02:05:01;2.83;;;1.57;;
48861;SDS011;34681;49.188;-0.374;2022-09-27T02:07:33;3.60;;;2.27;;
48861;SDS011;34681;49.188;-0.374;2022-09-27T02:10:05;4.00;;;2.00;;
48861;SDS011;34681;49.188;-0.374;2022-09-27T02:12:43;3.83;;;2.20;;
48861;SDS011;34681;49.188;-0.374;2022-09-27T02:15:15;4.53;;;2.53;;
48861;SDS011;34681;49.188;-0.374;2022-09-27T02:25:45;4.70;;;2.37;;
48861;SDS011;34681;49.188;-0.374;2022-09-27T02:28:29;4.27;;;2.00;;
48861;SDS011;34681;49.188;-0.374;2022-09-27T02:31:00;7.70;;;2.20;;
48861;SDS011;34681;49.188;-0.374;2022-09-27T02:33:27;5.47;;;2.27;;
48861;SDS011;34681;49.188;-0.374;2022-09-27T02:35:55;11.37;;;1.93;;
48861;SDS011;34681;49.188;-0.374;2022-09-27T02:38:21;3.93;;;1.83;;
48861;SDS011;34681;49.188;-0.374;2022-09-27T02:40:47;3.53;;;2.10;;
48861;SDS011;34681;49.188;-0.374;2022-09-27T02:43:13;3.43;;;1.50;;
48861;SDS011;34681;49.188;-0.374;2022-09-27T02:49:23;5.37;;;2.30;;
48861;SDS011;34681;49.188;-0.374;2022-09-27T03:00:11;4.60;;;2.10;;
48861;SDS011;34681;49.188;-0.374;2022-09-27T03:05:24;6.30;;;1.80;;
48861;SDS011;34681;49.188;-0.374;2022-09-27T03:07:52;2.60;;;1.80;;
48861;SDS011;34681;49.188;-0.374;2022-09-27T03:10:18;7.60;;;2.30;;
48861;SDS011;34681;49.188;-0.374;2022-09-27T03:12:45;7.47;;;2.33;;
48861;SDS011;34681;49.188;-0.374;2022-09-27T03:15:11;4.00;;;1.80;;
48861;SDS011;34681;49.188;-0.374;2022-09-27T03:17:37;4.37;;;2.13;;
48861;SDS011;34681;49.188;-0.374;2022-09-27T03:20:03;5.03;;;1.93;;
48861;SDS011;34681;49.188;-0.374;2022-09-27T03:22:29;5.03;;;2.10;;
48861;SDS011;34681;49.188;-0.374;2022-09-27T03:24:54;7.03;;;2.13;;
48861;SDS011;34681;49.188;-0.374;2022-09-27T03:27:20;4.30;;;2.30;;
48861;SDS011;34681;49.188;-0.374;2022-09-27T03:29:46;9.07;;;2.80;;
48861;SDS011;34681;49.188;-0.374;2022-09-27T03:32:11;6.03;;;2.17;;
48861;SDS011;34681;49.188;-0.374;2022-09-27T03:34:36;9.00;;;2.40;;
48861;SDS011;34681;49.188;-0.374;2022-09-27T03:37:02;6.50;;;2.90;;
48861;SDS011;34681;49.188;-0.374;2022-09-27T03:39:27;4.23;;;2.70;;
48861;SDS011;34681;49.188;-0.374;2022-09-27T03:41:53;5.63;;;2.50;;
48861;SDS011;34681;49.188;-0.374;2022-09-27T03:44:18;5.00;;;2.40;;
48861;SDS011;34681;49.188;-0.374;2022-09-27T03:46:43;3.93;;;2.33;;
48861;SDS011;34681;49.188;-0.374;2022-09-27T03:49:09;4.07;;;2.00;;
48861;SDS011;34681;49.188;-0.374;2022-09-27T03:51:34;5.67;;;1.80;;
48861;SDS011;34681;49.188;-0.374;2022-09-27T03:54:00;7.97;;;2.43;;
48861;SDS011;34681;49.188;-0.374;2022-09-27T03:56:25;8.77;;;2.57;;
48861;SDS011;34681;49.188;-0.374;2022-09-27T03:58:51;4.07;;;2.07;;
48861;SDS011;34681;49.188;-0.374;2022-09-27T04:01:16;6.07;;;2.57;;
48861;SDS011;34681;49.188;-0.374;2022-09-27T04:03:41;5.40;;;2.20;;
48861;SDS011;34681;49.188;-0.374;2022-09-27T04:06:07;5.80;;;3.10;;
48861;SDS011;34681;49.188;-0.374;2022-09-27T04:08:32;7.80;;;2.20;;
48861;SDS011;34681;49.188;-0.374;2022-09-27T04:10:58;6.03;;;3.30;;
48861;SDS011;34681;49.188;-0.374;2022-09-27T04:13:23;5.83;;;2.90;;
48861;SDS011;34681;49.188;-0.374;2022-09-27T04:15:49;6.60;;;2.00;;
48861;SDS011;34681;49.188;-0.374;2022-09-27T04:18:14;4.90;;;2.37;;
48861;SDS011;34681;49.188;-0.374;2022-09-27T04:20:39;3.60;;;1.87;;
48861;SDS011;34681;49.188;-0.374;2022-09-27T04:23:05;4.60;;;2.50;;
48861;SDS011;34681;49.188;-0.374;2022-09-27T04:25:31;3.93;;;2.20;;
48861;SDS011;34681;49.188;-0.374;2022-09-27T04:27:57;4.70;;;2.17;;
48861;SDS011;34681;49.188;-0.374;2022-09-27T04:30:23;5.13;;;2.00;;
48861;SDS011;34681;49.188;-0.374;2022-09-27T04:32:50;6.70;;;2.47;;
48861;SDS011;34681;49.188;-0.374;2022-09-27T04:35:16;5.40;;;2.07;;
48861;SDS011;34681;49.188;-0.374;2022-09-27T04:38:02;5.10;;;2.50;;
48861;SDS011;34681;49.188;-0.374;2022-09-27T04:40:27;5.73;;;2.20;;
48861;SDS011;34681;49.188;-0.374;2022-09-27T04:42:53;5.50;;;3.33;;
48861;SDS011;34681;49.188;-0.374;2022-09-27T04:45:19;7.50;;;5.17;;
48861;SDS011;34681;49.188;-0.374;2022-09-27T04:47:45;7.73;;;4.13;;
48861;SDS011;34681;49.188;-0.374;2022-09-27T04:50:13;6.60;;;3.77;;
48861;SDS011;34681;49.188;-0.374;2022-09-27T04:52:39;7.33;;;5.63;;
48861;SDS011;34681;49.188;-0.374;2022-09-27T04:55:05;6.50;;;4.30;;
48861;SDS011;34681;49.188;-0.374;2022-09-27T04:57:32;5.93;;;3.57;;
48861;SDS011;34681;49.188;-0.374;2022-09-27T04:59:57;8.50;;;3.40;;
48861;SDS011;34681;49.188;-0.374;2022-09-27T05:02:24;6.03;;;3.63;;
48861;SDS011;34681;49.188;-0.374;2022-09-27T05:04:51;7.27;;;3.87;;
48861;SDS011;34681;49.188;-0.374;2022-09-27T05:07:16;3.73;;;2.40;;
48861;SDS011;34681;49.188;-0.374;2022-09-27T05:09:41;7.23;;;2.90;;
48861;SDS011;34681;49.188;-0.374;2022-09-27T05:12:07;5.33;;;2.27;;
48861;SDS011;34681;49.188;-0.374;2022-09-27T05:14:32;3.33;;;2.57;;
48861;SDS011;34681;49.188;-0.374;2022-09-27T05:16:58;2.77;;;2.33;;
48861;SDS011;34681;49.188;-0.374;2022-09-27T05:19:23;9.37;;;3.00;;
48861;SDS011;34681;49.188;-0.374;2022-09-27T05:21:49;7.20;;;2.90;;
48861;SDS011;34681;49.188;-0.374;2022-09-27T05:24:14;4.00;;;2.40;;
48861;SDS011;34681;49.188;-0.374;2022-09-27T05:26:40;3.63;;;2.30;;
48861;SDS011;34681;49.188;-0.374;2022-09-27T05:29:05;5.13;;;2.53;;
48861;SDS011;34681;49.188;-0.374;2022-09-27T05:31:31;4.83;;;2.47;;
48861;SDS011;34681;49.188;-0.374;2022-09-27T05:33:56;4.67;;;2.60;;
48861;SDS011;34681;49.188;-0.374;2022-09-27T05:36:22;2.90;;;2.40;;
48861;SDS011;34681;49.188;-0.374;2022-09-27T05:38:47;6.57;;;2.63;;
48861;SDS011;34681;49.188;-0.374;2022-09-27T05:41:13;6.37;;;3.20;;
48861;SDS011;34681;49.188;-0.374;2022-09-27T05:43:39;5.10;;;2.50;;
48861;SDS011;34681;49.188;-0.374;2022-09-27T05:46:05;4.70;;;3.30;;
48861;SDS011;34681;49.188;-0.374;2022-09-27T05:48:31;4.40;;;2.63;;
48861;SDS011;34681;49.188;-0.374;2022-09-27T05:50:56;4.90;;;2.80;;
48861;SDS011;34681;49.188;-0.374;2022-09-27T05:53:21;7.60;;;3.07;;
48861;SDS011;34681;49.188;-0.374;2022-09-27T05:55:47;7.50;;;2.80;;
48861;SDS011;34681;49.188;-0.374;2022-09-27T05:58:13;6.93;;;2.90;;
48861;SDS011;34681;49.188;-0.374;2022-09-27T06:00:40;4.67;;;2.57;;
48861;SDS011;34681;49.188;-0.374;2022-09-27T06:03:07;6.80;;;2.77;;
48861;SDS011;34681;49.188;-0.374;2022-09-27T06:05:36;8.40;;;2.70;;
48861;SDS011;34681;49.188;-0.374;2022-09-27T06:08:03;8.30;;;3.07;;
48861;SDS011;34681;49.188;-0.374;2022-09-27T06:10:31;5.60;;;2.80;;
48861;SDS011;34681;49.188;-0.374;2022-09-27T06:13:01;6.87;;;2.40;;
48861;SDS011;34681;49.188;-0.374;2022-09-27T06:15:29;9.80;;;2.80;;
48861;SDS011;34681;49.188;-0.374;2022-09-27T06:17:56;3.93;;;2.70;;
48861;SDS011;34681;49.188;-0.374;2022-09-27T06:20:22;4.97;;;2.20;;
48861;SDS011;34681;49.188;-0.374;2022-09-27T06:22:48;5.80;;;2.57;;
48861;SDS011;34681;49.188;-0.374;2022-09-27T06:25:13;5.83;;;3.17;;
48861;SDS011;34681;49.188;-0.374;2022-09-27T06:27:39;13.20;;;3.47;;
48861;SDS011;34681;49.188;-0.374;2022-09-27T06:30:04;11.57;;;3.30;;
48861;SDS011;34681;49.188;-0.374;2022-09-27T06:32:30;9.30;;;3.30;;
48861;SDS011;34681;49.188;-0.374;2022-09-27T06:34:56;12.50;;;3.87;;
48861;SDS011;34681;49.188;-0.374;2022-09-27T06:37:25;8.03;;;3.33;;
48861;SDS011;34681;49.188;-0.374;2022-09-27T06:39:51;8.50;;;2.80;;
48861;SDS011;34681;49.188;-0.374;2022-09-27T06:42:17;9.97;;;3.27;;
48861;SDS011;34681;49.188;-0.374;2022-09-27T06:44:43;8.43;;;3.20;;
48861;SDS011;34681;49.188;-0.374;2022-09-27T06:47:08;13.63;;;2.97;;
48861;SDS011;34681;49.188;-0.374;2022-09-27T06:49:34;9.03;;;3.17;;
48861;SDS011;34681;49.188;-0.374;2022-09-27T06:51:59;12.10;;;3.80;;
48861;SDS011;34681;49.188;-0.374;2022-09-27T06:54:25;9.57;;;3.10;;
48861;SDS011;34681;49.188;-0.374;2022-09-27T06:56:50;9.80;;;3.43;;
48861;SDS011;34681;49.188;-0.374;2022-09-27T06:59:16;8.37;;;3.60;;
48861;SDS011;34681;49.188;-0.374;2022-09-27T07:02:00;14.23;;;4.10;;
48861;SDS011;34681;49.188;-0.374;2022-09-27T07:04:25;9.07;;;2.83;;
48861;SDS011;34681;49.188;-0.374;2022-09-27T07:06:51;16.50;;;4.70;;
48861;SDS011;34681;49.188;-0.374;2022-09-27T07:09:17;11.60;;;3.47;;
48861;SDS011;34681;49.188;-0.374;2022-09-27T07:11:42;12.60;;;3.93;;
48861;SDS011;34681;49.188;-0.374;2022-09-27T07:14:08;10.47;;;3.47;;
48861;SDS011;34681;49.188;-0.374;2022-09-27T07:16:34;7.93;;;3.53;;
48861;SDS011;34681;49.188;-0.374;2022-09-27T07:18:59;5.93;;;2.90;;
48861;SDS011;34681;49.188;-0.374;2022-09-27T07:21:25;14.10;;;3.73;;
48861;SDS011;34681;49.188;-0.374;2022-09-27T07:23:51;10.80;;;4.03;;
48861;SDS011;34681;49.188;-0.374;2022-09-27T07:26:17;10.07;;;3.40;;
48861;SDS011;34681;49.188;-0.374;2022-09-27T07:28:42;8.53;;;2.80;;
48861;SDS011;34681;49.188;-0.374;2022-09-27T07:31:09;11.03;;;3.90;;
48861;SDS011;34681;49.188;-0.374;2022-09-27T07:33:34;8.80;;;3.60;;
48861;SDS011;34681;49.188;-0.374;2022-09-27T07:36:00;5.87;;;2.80;;
48861;SDS011;34681;49.188;-0.374;2022-09-27T07:38:31;13.03;;;3.70;;
48861;SDS011;34681;49.188;-0.374;2022-09-27T07:40:56;7.97;;;3.10;;
48861;SDS011;34681;49.188;-0.374;2022-09-27T07:43:21;8.93;;;2.63;;
48861;SDS011;34681;49.188;-0.374;2022-09-27T07:45:47;9.30;;;3.97;;
48861;SDS011;34681;49.188;-0.374;2022-09-27T07:48:13;8.17;;;3.60;;
48861;SDS011;34681;49.188;-0.374;2022-09-27T07:50:40;12.30;;;3.60;;
48861;SDS011;34681;49.188;-0.374;2022-09-27T07:53:05;9.10;;;3.10;;
48861;SDS011;34681;49.188;-0.374;2022-09-27T07:55:31;7.50;;;2.97;;
48861;SDS011;34681;49.188;-0.374;2022-09-27T07:58:04;4.80;;;2.60;;
48861;SDS011;34681;49.188;-0.374;2022-09-27T08:00:31;7.00;;;3.00;;
48861;SDS011;34681;49.188;-0.374;2022-09-27T08:02:56;10.00;;;3.20;;
48861;SDS011;34681;49.188;-0.374;2022-09-27T08:05:21;6.30;;;3.00;;
48861;SDS011;34681;49.188;-0.374;2022-09-27T08:07:47;6.10;;;3.23;;
48861;SDS011;34681;49.188;-0.374;2022-09-27T08:10:12;14.60;;;3.60;;
48861;SDS011;34681;49.188;-0.374;2022-09-27T08:12:38;5.83;;;2.80;;
48861;SDS011;34681;49.188;-0.374;2022-09-27T08:15:03;11.30;;;3.50;;
48861;SDS011;34681;49.188;-0.374;2022-09-27T08:17:29;9.77;;;2.90;;
48861;SDS011;34681;49.188;-0.374;2022-09-27T08:19:56;9.00;;;2.57;;
48861;SDS011;34681;49.188;-0.374;2022-09-27T08:22:22;10.17;;;3.07;;
48861;SDS011;34681;49.188;-0.374;2022-09-27T08:24:47;8.30;;;3.00;;
48861;SDS011;34681;49.188;-0.374;2022-09-27T08:27:13;12.13;;;3.47;;
48861;SDS011;34681;49.188;-0.374;2022-09-27T08:29:40;6.93;;;3.17;;
48861;SDS011;34681;49.188;-0.374;2022-09-27T08:32:09;12.27;;;4.23;;
48861;SDS011;34681;49.188;-0.374;2022-09-27T08:34:35;11.00;;;3.97;;
48861;SDS011;34681;49.188;-0.374;2022-09-27T08:37:01;11.57;;;4.17;;
48861;SDS011;34681;49.188;-0.374;2022-09-27T08:39:26;7.27;;;3.40;;
48861;SDS011;34681;49.188;-0.374;2022-09-27T08:45:12;8.97;;;3.50;;
48861;SDS011;34681;49.188;-0.374;2022-09-27T08:53:05;8.40;;;3.40;;
48861;SDS011;34681;49.188;-0.374;2022-09-27T08:55:44;9.10;;;3.80;;
48861;SDS011;34681;49.188;-0.374;2022-09-27T09:00:40;10.70;;;3.70;;
48861;SDS011;34681;49.188;-0.374;2022-09-27T09:03:07;12.73;;;3.10;;
48861;SDS011;34681;49.188;-0.374;2022-09-27T09:05:42;11.43;;;3.67;;
48861;SDS011;34681;49.188;-0.374;2022-09-27T09:17:37;17.37;;;4.30;;
48861;SDS011;34681;49.188;-0.374;2022-09-27T09:20:23;11.60;;;3.43;;
48861;SDS011;34681;49.188;-0.374;2022-09-27T09:28:03;7.80;;;3.43;;
48861;SDS011;34681;49.188;-0.374;2022-09-27T09:33:40;7.20;;;3.00;;
48861;SDS011;34681;49.188;-0.374;2022-09-27T09:38:48;6.17;;;3.10;;
48861;SDS011;34681;49.188;-0.374;2022-09-27T09:41:18;9.97;;;2.97;;
48861;SDS011;34681;49.188;-0.374;2022-09-27T09:44:01;11.83;;;3.47;;
48861;SDS011;34681;49.188;-0.374;2022-09-27T09:46:39;7.07;;;3.13;;
48861;SDS011;34681;49.188;-0.374;2022-09-27T09:51:51;6.93;;;2.57;;
48861;SDS011;34681;49.188;-0.374;2022-09-27T09:57:05;7.80;;;3.30;;
48861;SDS011;34681;49.188;-0.374;2022-09-27T09:59:57;9.57;;;3.00;;
48861;SDS011;34681;49.188;-0.374;2022-09-27T10:04:54;6.23;;;2.97;;
48861;SDS011;34681;49.188;-0.374;2022-09-27T10:07:20;7.10;;;3.13;;
48861;SDS011;34681;49.188;-0.374;2022-09-27T10:09:48;14.33;;;4.20;;
48861;SDS011;34681;49.188;-0.374;2022-09-27T10:12:14;12.53;;;4.00;;
48861;SDS011;34681;49.188;-0.374;2022-09-27T10:14:40;9.30;;;3.90;;
48861;SDS011;34681;49.188;-0.374;2022-09-27T10:17:10;11.30;;;4.30;;
48861;SDS011;34681;49.188;-0.374;2022-09-27T10:19:39;13.77;;;4.80;;
48861;SDS011;34681;49.188;-0.374;2022-09-27T10:24:59;9.97;;;3.70;;
48861;SDS011;34681;49.188;-0.374;2022-09-27T10:27:27;11.50;;;4.20;;
48861;SDS011;34681;49.188;-0.374;2022-09-27T10:30:02;11.37;;;4.00;;
48861;SDS011;34681;49.188;-0.374;2022-09-27T10:32:32;8.97;;;3.20;;
48861;SDS011;34681;49.188;-0.374;2022-09-27T10:37:55;11.33;;;3.80;;
48861;SDS011;34681;49.188;-0.374;2022-09-27T10:40:47;17.90;;;4.50;;
48861;SDS011;34681;49.188;-0.374;2022-09-27T10:46:05;12.03;;;4.40;;
48861;SDS011;34681;49.188;-0.374;2022-09-27T10:48:34;9.13;;;3.73;;
48861;SDS011;34681;49.188;-0.374;2022-09-27T10:51:01;9.93;;;4.10;;
48861;SDS011;34681;49.188;-0.374;2022-09-27T10:53:29;13.10;;;4.20;;
48861;SDS011;34681;49.188;-0.374;2022-09-27T10:55:56;11.47;;;4.17;;
48861;SDS011;34681;49.188;-0.374;2022-09-27T10:58:26;11.17;;;4.17;;
48861;SDS011;34681;49.188;-0.374;2022-09-27T11:01:09;20.83;;;4.80;;
48861;SDS011;34681;49.188;-0.374;2022-09-27T11:03:37;11.30;;;4.67;;
48861;SDS011;34681;49.188;-0.374;2022-09-27T11:08:53;13.80;;;4.73;;
48861;SDS011;34681;49.188;-0.374;2022-09-27T11:11:23;11.87;;;4.40;;
48861;SDS011;34681;49.188;-0.374;2022-09-27T11:13:57;11.37;;;4.23;;
48861;SDS011;34681;49.188;-0.374;2022-09-27T11:16:45;14.83;;;4.40;;
48861;SDS011;34681;49.188;-0.374;2022-09-27T11:30:11;20.10;;;5.00;;
48861;SDS011;34681;49.188;-0.374;2022-09-27T11:38:24;17.27;;;4.90;;
48861;SDS011;34681;49.188;-0.374;2022-09-27T11:46:41;17.67;;;4.67;;
48861;SDS011;34681;49.188;-0.374;2022-09-27T11:52:39;12.27;;;4.20;;
48861;SDS011;34681;49.188;-0.374;2022-09-27T12:06:12;10.60;;;4.73;;
48861;SDS011;34681;49.188;-0.374;2022-09-27T12:09:13;12.53;;;4.80;;
48861;SDS011;34681;49.188;-0.374;2022-09-27T12:11:45;16.57;;;5.13;;
48861;SDS011;34681;49.188;-0.374;2022-09-27T12:17:17;13.27;;;4.17;;
48861;SDS011;34681;49.188;-0.374;2022-09-27T12:19:48;15.47;;;5.20;;
48861;SDS011;34681;49.188;-0.374;2022-09-27T12:22:18;14.03;;;4.70;;
48861;SDS011;34681;49.188;-0.374;2022-09-27T12:24:50;11.20;;;4.63;;
48861;SDS011;34681;49.188;-0.374;2022-09-27T12:29:59;12.43;;;4.33;;
48861;SDS011;34681;49.188;-0.374;2022-09-27T12:32:29;12.77;;;4.70;;
48861;SDS011;34681;49.188;-0.374;2022-09-27T12:35:35;15.20;;;4.80;;
48861;SDS011;34681;49.188;-0.374;2022-09-27T12:38:15;12.30;;;4.97;;
48861;SDS011;34681;49.188;-0.374;2022-09-27T12:40:47;17.03;;;5.63;;
48861;SDS011;34681;49.188;-0.374;2022-09-27T12:51:19;15.43;;;4.03;;
48861;SDS011;34681;49.188;-0.374;2022-09-27T12:59:24;15.37;;;4.73;;
48861;SDS011;34681;49.188;-0.374;2022-09-27T13:07:30;15.03;;;4.47;;
48861;SDS011;34681;49.188;-0.374;2022-09-27T13:10:35;15.40;;;4.87;;
48861;SDS011;34681;49.188;-0.374;2022-09-27T13:13:13;15.80;;;5.10;;
48861;SDS011;34681;49.188;-0.374;2022-09-27T13:15:44;16.50;;;5.30;;
48861;SDS011;34681;49.188;-0.374;2022-09-27T13:20:59;15.67;;;5.17;;
48861;SDS011;34681;49.188;-0.374;2022-09-27T13:30:56;15.23;;;4.70;;
48861;SDS011;34681;49.188;-0.374;2022-09-27T13:41:25;15.23;;;5.53;;
48861;SDS011;34681;49.188;-0.374;2022-09-27T13:47:28;13.80;;;5.70;;
48861;SDS011;34681;49.188;-0.374;2022-09-27T13:50:23;19.27;;;6.53;;
48861;SDS011;34681;49.188;-0.374;2022-09-27T13:53:03;17.23;;;4.97;;
48861;SDS011;34681;49.188;-0.374;2022-09-27T13:55:45;16.30;;;5.33;;
48861;SDS011;34681;49.188;-0.374;2022-09-27T14:00:47;12.60;;;4.63;;
48861;SDS011;34681;49.188;-0.374;2022-09-27T14:03:21;11.43;;;5.50;;
48861;SDS011;34681;49.188;-0.374;2022-09-27T14:06:16;13.67;;;4.40;;
48861;SDS011;34681;49.188;-0.374;2022-09-27T14:08:45;22.87;;;6.17;;
48861;SDS011;34681;49.188;-0.374;2022-09-27T14:11:16;17.63;;;5.30;;
48861;SDS011;34681;49.188;-0.374;2022-09-27T14:13:47;15.23;;;5.00;;
48861;SDS011;34681;49.188;-0.374;2022-09-27T14:16:14;12.13;;;4.70;;
48861;SDS011;34681;49.188;-0.374;2022-09-27T14:18:42;13.43;;;4.57;;
48861;SDS011;34681;49.188;-0.374;2022-09-27T14:21:26;19.23;;;5.97;;
48861;SDS011;34681;49.188;-0.374;2022-09-27T14:26:45;26.17;;;5.10;;
48861;SDS011;34681;49.188;-0.374;2022-09-27T14:29:18;11.37;;;4.27;;
48861;SDS011;34681;49.188;-0.374;2022-09-27T14:31:45;16.20;;;5.10;;
48861;SDS011;34681;49.188;-0.374;2022-09-27T14:34:13;18.93;;;4.83;;
48861;SDS011;34681;49.188;-0.374;2022-09-27T14:36:39;11.43;;;4.27;;
48861;SDS011;34681;49.188;-0.374;2022-09-27T14:39:30;16.00;;;4.90;;
48861;SDS011;34681;49.188;-0.374;2022-09-27T14:42:00;13.90;;;4.90;;
48861;SDS011;34681;49.188;-0.374;2022-09-27T14:44:28;19.03;;;5.20;;
48861;SDS011;34681;49.188;-0.374;2022-09-27T14:47:08;15.83;;;4.83;;
48861;SDS011;34681;49.188;-0.374;2022-09-27T14:49:51;18.00;;;5.50;;
48861;SDS011;34681;49.188;-0.374;2022-09-27T14:52:21;15.13;;;4.43;;
48861;SDS011;34681;49.188;-0.374;2022-09-27T14:55:34;16.33;;;4.70;;
48861;SDS011;34681;49.188;-0.374;2022-09-27T14:58:01;18.40;;;5.90;;
48861;SDS011;34681;49.188;-0.374;2022-09-27T15:00:32;22.10;;;5.87;;
48861;SDS011;34681;49.188;-0.374;2022-09-27T15:03:01;23.73;;;5.83;;
48861;SDS011;34681;49.188;-0.374;2022-09-27T15:05:32;21.80;;;6.00;;
48861;SDS011;34681;49.188;-0.374;2022-09-27T15:08:02;19.83;;;4.90;;
48861;SDS011;34681;49.188;-0.374;2022-09-27T15:10:31;18.53;;;4.83;;
48861;SDS011;34681;49.188;-0.374;2022-09-27T15:12:59;13.20;;;4.87;;
48861;SDS011;34681;49.188;-0.374;2022-09-27T15:15:28;13.17;;;4.80;;
48861;SDS011;34681;49.188;-0.374;2022-09-27T15:17:59;20.13;;;5.10;;
48861;SDS011;34681;49.188;-0.374;2022-09-27T15:20:29;11.80;;;4.83;;
48861;SDS011;34681;49.188;-0.374;2022-09-27T15:22:59;15.27;;;5.90;;
48861;SDS011;34681;49.188;-0.374;2022-09-27T15:25:37;15.23;;;4.67;;
48861;SDS011;34681;49.188;-0.374;2022-09-27T15:30:39;12.77;;;4.70;;
48861;SDS011;34681;49.188;-0.374;2022-09-27T15:33:17;15.63;;;5.13;;
48861;SDS011;34681;49.188;-0.374;2022-09-27T15:35:48;13.60;;;5.90;;
48861;SDS011;34681;49.188;-0.374;2022-09-27T15:43:36;17.33;;;5.50;;
48861;SDS011;34681;49.188;-0.374;2022-09-27T15:46:04;14.50;;;5.10;;
48861;SDS011;34681;49.188;-0.374;2022-09-27T15:49:13;11.43;;;4.27;;
48861;SDS011;34681;49.188;-0.374;2022-09-27T15:51:39;17.37;;;5.10;;
48861;SDS011;34681;49.188;-0.374;2022-09-27T15:54:05;17.23;;;5.30;;
48861;SDS011;34681;49.188;-0.374;2022-09-27T15:56:31;14.40;;;5.10;;
48861;SDS011;34681;49.188;-0.374;2022-09-27T15:58:58;14.83;;;5.00;;
48861;SDS011;34681;49.188;-0.374;2022-09-27T16:01:23;14.80;;;4.77;;
48861;SDS011;34681;49.188;-0.374;2022-09-27T16:03:49;14.50;;;4.97;;
48861;SDS011;34681;49.188;-0.374;2022-09-27T16:06:14;15.17;;;4.40;;
48861;SDS011;34681;49.188;-0.374;2022-09-27T16:08:40;22.80;;;6.07;;
48861;SDS011;34681;49.188;-0.374;2022-09-27T16:11:08;16.27;;;5.30;;
48861;SDS011;34681;49.188;-0.374;2022-09-27T16:13:36;15.33;;;4.80;;
48861;SDS011;34681;49.188;-0.374;2022-09-27T16:16:01;18.20;;;6.80;;
48861;SDS011;34681;49.188;-0.374;2022-09-27T16:18:27;15.23;;;7.53;;
48861;SDS011;34681;49.188;-0.374;2022-09-27T16:20:52;17.17;;;6.90;;
48861;SDS011;34681;49.188;-0.374;2022-09-27T16:23:18;11.00;;;5.13;;
48861;SDS011;34681;49.188;-0.374;2022-09-27T16:25:43;17.90;;;5.90;;
48861;SDS011;34681;49.188;-0.374;2022-09-27T16:28:08;16.00;;;4.83;;
48861;SDS011;34681;49.188;-0.374;2022-09-27T16:30:34;12.27;;;4.93;;
48861;SDS011;34681;49.188;-0.374;2022-09-27T16:32:59;18.57;;;6.37;;
48861;SDS011;34681;49.188;-0.374;2022-09-27T16:35:25;13.43;;;5.23;;
48861;SDS011;34681;49.188;-0.374;2022-09-27T16:37:52;10.80;;;4.90;;
48861;SDS011;34681;49.188;-0.374;2022-09-27T16:40:17;12.53;;;6.20;;
48861;SDS011;34681;49.188;-0.374;2022-09-27T16:42:43;16.00;;;5.50;;
48861;SDS011;34681;49.188;-0.374;2022-09-27T16:45:11;14.33;;;5.93;;
48861;SDS011;34681;49.188;-0.374;2022-09-27T16:47:37;12.57;;;5.80;;
48861;SDS011;34681;49.188;-0.374;2022-09-27T16:50:03;14.17;;;5.30;;
48861;SDS011;34681;49.188;-0.374;2022-09-27T16:52:47;11.10;;;5.03;;
48861;SDS011;34681;49.188;-0.374;2022-09-27T16:55:14;14.37;;;4.60;;
48861;SDS011;34681;49.188;-0.374;2022-09-27T16:57:48;9.67;;;4.47;;
48861;SDS011;34681;49.188;-0.374;2022-09-27T17:00:15;12.20;;;4.73;;
48861;SDS011;34681;49.188;-0.374;2022-09-27T17:02:42;10.33;;;4.10;;
48861;SDS011;34681;49.188;-0.374;2022-09-27T17:05:11;13.80;;;5.00;;
48861;SDS011;34681;49.188;-0.374;2022-09-27T17:07:36;11.93;;;5.43;;
48861;SDS011;34681;49.188;-0.374;2022-09-27T17:10:02;10.13;;;6.37;;
48861;SDS011;34681;49.188;-0.374;2022-09-27T17:12:27;12.90;;;3.70;;
48861;SDS011;34681;49.188;-0.374;2022-09-27T17:14:55;15.00;;;4.50;;
48861;SDS011;34681;49.188;-0.374;2022-09-27T17:17:20;10.20;;;4.60;;
48861;SDS011;34681;49.188;-0.374;2022-09-27T17:19:45;9.03;;;3.90;;
48861;SDS011;34681;49.188;-0.374;2022-09-27T17:22:12;10.63;;;4.33;;
48861;SDS011;34681;49.188;-0.374;2022-09-27T17:24:37;9.67;;;3.77;;
48861;SDS011;34681;49.188;-0.374;2022-09-27T17:27:03;12.27;;;4.00;;
48861;SDS011;34681;49.188;-0.374;2022-09-27T17:29:28;9.23;;;4.10;;
48861;SDS011;34681;49.188;-0.374;2022-09-27T17:31:54;10.90;;;4.40;;
48861;SDS011;34681;49.188;-0.374;2022-09-27T17:34:20;11.20;;;6.00;;
48861;SDS011;34681;49.188;-0.374;2022-09-27T17:36:46;11.57;;;4.40;;
48861;SDS011;34681;49.188;-0.374;2022-09-27T17:39:16;8.20;;;3.80;;
48861;SDS011;34681;49.188;-0.374;2022-09-27T17:41:45;5.93;;;3.97;;
48861;SDS011;34681;49.188;-0.374;2022-09-27T17:44:12;8.30;;;3.77;;
48861;SDS011;34681;49.188;-0.374;2022-09-27T17:46:45;11.97;;;3.30;;
48861;SDS011;34681;49.188;-0.374;2022-09-27T17:49:33;16.80;;;4.43;;
48861;SDS011;34681;49.188;-0.374;2022-09-27T17:52:20;6.80;;;3.30;;
48861;SDS011;34681;49.188;-0.374;2022-09-27T17:54:50;8.50;;;3.97;;
48861;SDS011;34681;49.188;-0.374;2022-09-27T17:57:18;11.37;;;3.60;;
48861;SDS011;34681;49.188;-0.374;2022-09-27T17:59:44;6.40;;;3.10;;
48861;SDS011;34681;49.188;-0.374;2022-09-27T18:02:09;21.27;;;18.57;;
48861;SDS011;34681;49.188;-0.374;2022-09-27T18:04:34;11.40;;;9.23;;
48861;SDS011;34681;49.188;-0.374;2022-09-27T18:07:00;7.17;;;5.00;;
48861;SDS011;34681;49.188;-0.374;2022-09-27T18:09:25;9.33;;;7.00;;